Apucarana, Brazil
Current Conditions -  °F | °C
As of 2:00 AM on Monday 26 Jan 2015 (Local Time) from SBLO Reporting Station
Broken Clouds Broken Clouds  
Wind Chill: 72°   Ceiling: 8000
Heat Index: 72°   Visibility: 6mi
Dew Point: 64°   Wind: 6mph
Humidity: 78%   Direction: 250°WSW
Pressure: 30"   Gusts: NA
Location:  23.55°S, 51.47°W
Report Text: SBLO 260400Z 25005KT 9999 SCT030 BKN080 22/18 Q1016 RETS
Loading
Personal Weather Stations






























Interactive Weather Map New forecast layout! Learn more

10-Day Weather Forecast

Advertisements
Track Severe Weather on mobile